createdAt,value
2023-05-05T00:02:01.732Z,101449.63
2023-05-05T00:04:29.437Z,101450.97
2023-05-05T00:06:58.398Z,101455.66
2023-05-05T00:09:26.130Z,101454.38
2023-05-05T00:11:53.719Z,101450.53
2023-05-05T00:14:21.352Z,101465.19
2023-05-05T00:16:48.961Z,101456.97
2023-05-05T00:19:16.596Z,101460.53
2023-05-05T00:21:44.205Z,101453.81
2023-05-05T00:24:15.789Z,101459.50
2023-05-05T00:26:43.402Z,101457.97
2023-05-05T00:29:11.332Z,101452.72
2023-05-05T00:31:39.042Z,101446.69
2023-05-05T00:34:06.893Z,101449.38
2023-05-05T00:36:34.476Z,101440.69
2023-05-05T00:39:02.091Z,101440.69
2023-05-05T00:41:31.509Z,101447.47
2023-05-05T00:43:59.122Z,101436.28
2023-05-05T00:46:27.167Z,101434.81
2023-05-05T00:49:00.661Z,101425.81
2023-05-05T00:51:28.567Z,101427.25
2023-05-05T00:54:03.384Z,101436.16
2023-05-05T00:56:32.586Z,101429.69
2023-05-05T00:59:00.724Z,101428.75
2023-05-05T01:01:28.441Z,101428.69
2023-05-05T01:03:56.633Z,101428.75
2023-05-05T01:06:30.091Z,101425.53
2023-05-05T01:09:04.280Z,101420.44
2023-05-05T01:11:35.757Z,101427.84
2023-05-05T01:14:07.093Z,101425.75
2023-05-05T01:16:34.830Z,101422.63
2023-05-05T01:19:05.586Z,101422.03
2023-05-05T01:21:34.445Z,101428.44
2023-05-05T01:24:12.119Z,101425.00
2023-05-05T01:26:47.835Z,101425.91
2023-05-05T01:29:26.715Z,101416.47
2023-05-05T01:31:57.041Z,101408.31
2023-05-05T01:34:26.137Z,101419.03
2023-05-05T01:36:56.297Z,101426.84
2023-05-05T01:39:25.003Z,101415.97
2023-05-05T01:41:52.672Z,101421.22
2023-05-05T01:44:20.290Z,101414.88
2023-05-05T01:46:48.017Z,101422.53
2023-05-05T01:49:17.025Z,101420.28
2023-05-05T01:51:44.646Z,101419.31
2023-05-05T01:54:12.261Z,101419.81
2023-05-05T01:56:40.114Z,101422.72
2023-05-05T01:59:08.655Z,101413.41
2023-05-05T02:01:37.094Z,101414.78
2023-05-05T02:04:12.856Z,101416.97
2023-05-05T02:06:44.858Z,101417.28
2023-05-05T02:09:13.111Z,101414.69
2023-05-05T02:11:40.937Z,101413.63
2023-05-05T02:14:08.679Z,101406.16
2023-05-05T02:16:36.456Z,101407.81
2023-05-05T02:19:05.388Z,101413.69
2023-05-05T02:21:33.693Z,101407.94
2023-05-05T02:24:02.861Z,101412.59
2023-05-05T02:26:30.662Z,101414.75
2023-05-05T02:29:01.926Z,101415.19
2023-05-05T02:31:29.657Z,101415.47
2023-05-05T02:33:57.708Z,101417.66
2023-05-05T02:36:27.836Z,101417.22
2023-05-05T02:39:01.082Z,101411.44
2023-05-05T02:41:32.863Z,101407.66
2023-05-05T02:44:04.628Z,101411.81
2023-05-05T02:46:35.410Z,101405.53
2023-05-05T02:49:03.359Z,101413.09
2023-05-05T02:51:32.491Z,101406.22
2023-05-05T02:54:04.487Z,101408.06
2023-05-05T02:56:35.706Z,101409.69
2023-05-05T02:59:05.569Z,101409.06
2023-05-05T03:01:37.776Z,101417.19
2023-05-05T03:04:07.714Z,101412.59
2023-05-05T03:06:40.782Z,101409.84
2023-05-05T03:09:11.040Z,101412.41
2023-05-05T03:11:44.611Z,101413.53
2023-05-05T03:14:13.048Z,101412.41
2023-05-05T03:16:41.966Z,101409.91
2023-05-05T03:19:12.469Z,101404.69
2023-05-05T03:21:41.911Z,101408.03
2023-05-05T03:24:13.349Z,101407.53
2023-05-05T03:26:43.751Z,101409.38
2023-05-05T03:29:11.937Z,101404.13
2023-05-05T03:31:41.119Z,101403.13
2023-05-05T03:34:09.389Z,101408.78
2023-05-05T03:36:43.440Z,101412.84
2023-05-05T03:39:13.984Z,101413.34
2023-05-05T03:41:43.108Z,101415.91
2023-05-05T03:44:12.273Z,101408.56
2023-05-05T03:46:40.099Z,101409.44
2023-05-05T03:49:11.401Z,101412.13
2023-05-05T03:51:40.861Z,101410.19
2023-05-05T03:54:08.811Z,101406.69
2023-05-05T03:56:37.392Z,101405.53
2023-05-05T03:59:06.413Z,101406.09
2023-05-05T04:01:35.183Z,101410.75
2023-05-05T04:04:02.937Z,101409.69
2023-05-05T04:06:31.798Z,101405.06
2023-05-05T04:08:59.682Z,101408.69
2023-05-05T04:11:27.439Z,101404.44
2023-05-05T04:13:56.170Z,101401.00
2023-05-05T04:16:26.328Z,101409.63
2023-05-05T04:18:55.328Z,101403.13
2023-05-05T04:21:23.033Z,101399.00
2023-05-05T04:23:50.799Z,101398.88
2023-05-05T04:26:18.678Z,101407.38
2023-05-05T04:28:47.177Z,101405.53
2023-05-05T04:31:42.003Z,101407.09
2023-05-05T04:34:11.099Z,101420.00
2023-05-05T04:36:39.134Z,101416.06
2023-05-05T04:39:08.614Z,101421.38
2023-05-05T04:41:36.685Z,101420.84
2023-05-05T04:44:04.536Z,101420.34
2023-05-05T04:46:34.710Z,101419.72
2023-05-05T04:49:04.976Z,101420.88
2023-05-05T04:51:34.809Z,101434.59
2023-05-05T04:54:02.458Z,101429.28
2023-05-05T04:56:31.684Z,101430.28
2023-05-05T04:58:59.332Z,101440.22
2023-05-05T05:01:27.029Z,101432.75
2023-05-05T05:03:54.776Z,101438.13
2023-05-05T05:06:22.413Z,101442.56
2023-05-05T05:08:51.993Z,101441.81
2023-05-05T05:11:19.637Z,101439.81
2023-05-05T05:13:47.312Z,101438.16
2023-05-05T05:16:15.127Z,101434.06
2023-05-05T05:18:42.808Z,101438.72
2023-05-05T05:21:10.561Z,101445.06
2023-05-05T05:23:38.272Z,101444.97
2023-05-05T05:26:07.961Z,101446.97
2023-05-05T05:28:36.734Z,101445.00
2023-05-05T05:31:04.805Z,101444.81
2023-05-05T05:33:32.737Z,101443.25
2023-05-05T05:36:00.450Z,101451.22
2023-05-05T05:38:28.580Z,101448.34
2023-05-05T05:40:59.498Z,101446.63
2023-05-05T05:43:29.669Z,101447.88
2023-05-05T05:45:57.356Z,101440.59
2023-05-05T05:48:28.507Z,101443.53
2023-05-05T05:50:57.975Z,101445.97
2023-05-05T05:53:26.281Z,101443.00
2023-05-05T05:55:55.062Z,101444.34
2023-05-05T05:58:22.740Z,101438.69
2023-05-05T06:00:52.177Z,101444.53
2023-05-05T06:03:20.448Z,101431.69
2023-05-05T06:05:49.372Z,101441.63
2023-05-05T06:08:17.521Z,101436.19
2023-05-05T06:10:50.200Z,101440.81
2023-05-05T06:13:20.228Z,101442.44
2023-05-05T06:15:52.076Z,101448.16
2023-05-05T06:18:20.264Z,101444.81
2023-05-05T06:20:50.014Z,101441.41
2023-05-05T06:23:19.800Z,101448.72
2023-05-05T06:25:54.586Z,101443.50
2023-05-05T06:28:22.226Z,101444.75
2023-05-05T06:30:49.848Z,101449.44
2023-05-05T06:33:18.883Z,101451.56
2023-05-05T06:35:47.772Z,101446.88
2023-05-05T06:38:15.383Z,101449.97
2023-05-05T06:40:43.152Z,101450.44
2023-05-05T06:43:11.142Z,101449.44
2023-05-05T06:45:45.999Z,101444.44
2023-05-05T06:48:13.736Z,101449.75
2023-05-05T06:50:43.133Z,101450.19
2023-05-05T06:53:10.927Z,101457.38
2023-05-05T06:55:38.586Z,101451.47
2023-05-05T06:58:06.494Z,101452.41
2023-05-05T07:00:34.210Z,101457.25
2023-05-05T07:03:02.098Z,101461.09
2023-05-05T07:05:29.728Z,101455.25
2023-05-05T07:07:59.417Z,101458.56
2023-05-05T07:10:27.236Z,101452.19
2023-05-05T07:12:55.407Z,101457.59
2023-05-05T07:15:28.097Z,101457.75
2023-05-05T07:17:57.702Z,101462.56
2023-05-05T07:20:25.628Z,101464.59
2023-05-05T07:22:53.215Z,101465.72
2023-05-05T07:25:22.904Z,101463.25
2023-05-05T07:27:50.590Z,101458.34
2023-05-05T07:30:19.110Z,101468.09
2023-05-05T07:32:47.233Z,101469.44
2023-05-05T07:35:15.029Z,101479.19
2023-05-05T07:37:42.644Z,101469.66
2023-05-05T07:40:10.899Z,101469.72
2023-05-05T07:42:40.246Z,101475.75
2023-05-05T07:45:08.476Z,101477.13
2023-05-05T07:47:36.110Z,101482.13
2023-05-05T07:50:03.791Z,101480.00
2023-05-05T07:52:45.118Z,101476.53
2023-05-05T07:55:14.069Z,101476.66
2023-05-05T07:57:43.173Z,101488.91
2023-05-05T08:00:11.595Z,101475.75
2023-05-05T08:02:42.498Z,101472.16
2023-05-05T08:05:10.410Z,101475.84
2023-05-05T08:07:41.184Z,101466.03
2023-05-05T08:10:09.847Z,101468.50
2023-05-05T08:12:37.619Z,101468.22
2023-05-05T08:15:07.411Z,101459.97
2023-05-05T08:17:44.470Z,101463.22
2023-05-05T08:20:12.397Z,101451.56
2023-05-05T08:22:40.012Z,101457.44
2023-05-05T08:25:08.292Z,101465.03
2023-05-05T08:27:36.100Z,101460.34
2023-05-05T08:30:03.824Z,101466.28
2023-05-05T08:32:32.941Z,101467.72
2023-05-05T08:35:02.018Z,101462.53
2023-05-05T08:37:29.637Z,101448.66
2023-05-05T08:39:57.334Z,101461.06
2023-05-05T08:42:36.307Z,101454.00
2023-05-05T08:45:07.173Z,101443.00
2023-05-05T08:47:36.829Z,101449.16
2023-05-05T08:50:05.669Z,101446.00
2023-05-05T08:52:34.607Z,101449.69
2023-05-05T08:55:03.528Z,101451.22
2023-05-05T08:57:33.315Z,101444.06
2023-05-05T09:00:01.444Z,101447.50
2023-05-05T09:02:29.839Z,101460.06
2023-05-05T09:05:00.611Z,101453.50
2023-05-05T09:07:28.224Z,101458.81
2023-05-05T09:09:55.816Z,101460.50
2023-05-05T09:12:23.468Z,101452.88
2023-05-05T09:14:51.048Z,101454.63
2023-05-05T09:17:25.326Z,101461.47
2023-05-05T09:20:05.072Z,101452.97
2023-05-05T09:22:33.617Z,101447.63
2023-05-05T09:25:01.308Z,101449.84
2023-05-05T09:27:28.962Z,101438.31
2023-05-05T09:29:57.270Z,101437.63
2023-05-05T09:32:24.922Z,101448.13
2023-05-05T09:34:59.724Z,101442.94
2023-05-05T09:37:32.637Z,101445.19
2023-05-05T09:40:00.897Z,101444.59
2023-05-05T09:42:28.686Z,101437.84
2023-05-05T09:44:57.913Z,101430.63
2023-05-05T09:47:35.052Z,101434.56
2023-05-05T09:50:03.096Z,101431.00
2023-05-05T09:52:32.126Z,101438.66
2023-05-05T09:54:59.784Z,101428.53
2023-05-05T09:57:28.157Z,101435.34
2023-05-05T09:59:56.334Z,101437.28
2023-05-05T10:02:30.464Z,101439.19
2023-05-05T10:05:07.793Z,101438.88
2023-05-05T10:07:37.220Z,101439.19
2023-05-05T10:10:05.814Z,101439.41
2023-05-05T10:12:33.607Z,101429.81
2023-05-05T10:15:02.311Z,101434.75
2023-05-05T10:17:31.527Z,101422.88
2023-05-05T10:20:00.306Z,101428.81
2023-05-05T10:22:28.597Z,101431.81
2023-05-05T10:24:58.346Z,101420.47
2023-05-05T10:27:26.044Z,101421.28
2023-05-05T10:29:54.853Z,101424.78
2023-05-05T10:32:50.237Z,101424.84
2023-05-05T10:35:11.318Z,101415.53
2023-05-05T10:37:39.359Z,101414.00
2023-05-05T10:40:09.467Z,101405.41
2023-05-05T10:42:37.705Z,101410.22
2023-05-05T10:45:05.722Z,101409.25
2023-05-05T10:47:33.381Z,101410.03
2023-05-05T10:50:01.352Z,101407.19
2023-05-05T10:52:29.733Z,101404.81
2023-05-05T10:54:59.801Z,101401.75
2023-05-05T10:57:30.227Z,101403.72
2023-05-05T10:59:57.869Z,101399.66
2023-05-05T11:02:26.103Z,101399.66
2023-05-05T11:05:09.636Z,101396.47
2023-05-05T11:07:37.318Z,101389.97
2023-05-05T11:10:05.662Z,101385.66
2023-05-05T11:12:38.582Z,101387.72
2023-05-05T11:15:37.347Z,101385.50
2023-05-05T11:18:07.560Z,101381.72
2023-05-05T11:20:54.866Z,101378.63
2023-05-05T11:23:22.609Z,101376.09
2023-05-05T11:25:51.460Z,101374.59
2023-05-05T11:28:21.126Z,101375.59
2023-05-05T11:31:07.422Z,101357.38
2023-05-05T11:33:36.805Z,101372.34
2023-05-05T11:36:06.785Z,101362.19
2023-05-05T11:38:39.825Z,101366.91
2023-05-05T11:41:10.493Z,101354.69
2023-05-05T11:43:39.516Z,101363.44
2023-05-05T11:46:16.769Z,101349.53
2023-05-05T11:48:47.737Z,101346.03
2023-05-05T11:51:15.406Z,101338.81
2023-05-05T11:53:43.826Z,101337.59
2023-05-05T11:56:12.073Z,101342.69
2023-05-05T11:58:41.941Z,101334.34
2023-05-05T12:01:09.576Z,101322.56
2023-05-05T12:03:37.401Z,101325.06
2023-05-05T12:06:05.368Z,101325.88
2023-05-05T12:08:36.440Z,101328.94
2023-05-05T12:11:04.563Z,101311.00
2023-05-05T12:13:32.277Z,101315.53
2023-05-05T12:16:10.459Z,101319.34
2023-05-05T12:18:38.204Z,101308.97
2023-05-05T12:21:14.168Z,101314.53
2023-05-05T12:23:41.820Z,101300.47
2023-05-05T12:26:10.380Z,101301.25
2023-05-05T12:28:47.263Z,101300.53
2023-05-05T12:31:16.733Z,101292.88
2023-05-05T12:33:44.423Z,101299.97
2023-05-05T12:36:12.113Z,101299.13
2023-05-05T12:38:39.768Z,101303.97
2023-05-05T12:41:07.409Z,101295.44
2023-05-05T12:43:36.362Z,101297.75
2023-05-05T12:46:04.708Z,101296.25
2023-05-05T12:48:33.829Z,101288.81
2023-05-05T12:51:11.384Z,101290.78
2023-05-05T12:53:39.028Z,101294.38
2023-05-05T12:56:07.254Z,101287.28
2023-05-05T12:58:49.548Z,101293.16
2023-05-05T13:01:17.190Z,101283.47
2023-05-05T13:03:46.678Z,101282.34
2023-05-05T13:06:20.233Z,101274.47
2023-05-05T13:08:48.213Z,101266.69
2023-05-05T13:11:15.914Z,101273.56
2023-05-05T13:13:43.712Z,101260.00
2023-05-05T13:16:11.481Z,101271.53
2023-05-05T13:18:46.793Z,101264.47
2023-05-05T13:21:14.734Z,101267.22
2023-05-05T13:23:43.606Z,101261.78
2023-05-05T13:26:11.208Z,101261.41
2023-05-05T13:28:38.952Z,101250.25
2023-05-05T13:31:06.625Z,101254.09
2023-05-05T13:33:34.606Z,101246.78
2023-05-05T13:36:03.702Z,101238.16
2023-05-05T13:38:32.890Z,101236.00
2023-05-05T13:41:00.604Z,101239.69
2023-05-05T13:43:28.245Z,101231.03
2023-05-05T13:46:05.637Z,101232.66
2023-05-05T13:48:40.074Z,101230.91
2023-05-05T13:51:09.520Z,101229.31
2023-05-05T13:53:37.314Z,101229.53
2023-05-05T13:56:05.071Z,101228.91
2023-05-05T13:58:32.855Z,101222.66
2023-05-05T14:01:00.582Z,101208.53
2023-05-05T14:03:28.236Z,101208.97
2023-05-05T14:05:55.917Z,101208.09
2023-05-05T14:08:24.885Z,101204.88
2023-05-05T14:10:52.527Z,101199.19
2023-05-05T14:13:20.155Z,101199.72
2023-05-05T14:15:50.213Z,101193.59
2023-05-05T14:18:17.844Z,101191.25
2023-05-05T14:20:45.527Z,101180.16
2023-05-05T14:23:13.188Z,101191.41
2023-05-05T14:25:42.580Z,101184.47
2023-05-05T14:28:10.316Z,101188.22
2023-05-05T14:30:37.949Z,101179.09
2023-05-05T14:33:05.592Z,101186.00
2023-05-05T14:35:33.318Z,101174.88
2023-05-05T14:38:00.992Z,101174.75
2023-05-05T14:40:29.467Z,101174.16
2023-05-05T14:42:58.486Z,101177.22
2023-05-05T14:45:26.374Z,101173.16
2023-05-05T14:47:54.015Z,101168.28
2023-05-05T14:50:21.882Z,101179.41
2023-05-05T14:52:49.522Z,101174.94
2023-05-05T14:55:17.337Z,101170.41
2023-05-05T14:57:44.929Z,101171.69
2023-05-05T15:00:14.600Z,101174.91
2023-05-05T15:02:42.371Z,101165.47
2023-05-05T15:05:10.401Z,101169.81
2023-05-05T15:07:38.389Z,101168.72
2023-05-05T15:10:06.521Z,101174.81
2023-05-05T15:12:34.297Z,101164.84
2023-05-05T15:15:01.986Z,101163.16
2023-05-05T15:17:31.990Z,101166.50
2023-05-05T15:19:59.699Z,101164.84
2023-05-05T15:22:27.268Z,101155.50
2023-05-05T15:24:54.952Z,101155.09
2023-05-05T15:27:22.546Z,101147.84
2023-05-05T15:29:50.318Z,101155.19
2023-05-05T15:32:17.893Z,101148.94
2023-05-05T15:34:48.396Z,101156.06
2023-05-05T15:37:17.893Z,101150.53
2023-05-05T15:39:45.507Z,101144.13
2023-05-05T15:42:13.161Z,101129.84
2023-05-05T15:44:40.783Z,101141.47
2023-05-05T15:47:08.968Z,101147.84
2023-05-05T15:49:36.709Z,101141.91
2023-05-05T15:52:05.926Z,101141.59
2023-05-05T15:54:33.598Z,101138.19
2023-05-05T15:57:01.298Z,101134.50
2023-05-05T15:59:28.915Z,101141.88
2023-05-05T16:01:56.562Z,101148.13
2023-05-05T16:04:24.192Z,101143.88
2023-05-05T16:06:51.835Z,101134.44
2023-05-05T16:09:20.833Z,101136.69
2023-05-05T16:11:48.512Z,101146.47
2023-05-05T16:14:18.075Z,101151.38
2023-05-05T16:16:45.792Z,101137.63
2023-05-05T16:19:13.467Z,101143.00
2023-05-05T16:21:41.121Z,101134.28
2023-05-05T16:24:08.957Z,101146.28
2023-05-05T16:26:38.036Z,101144.56
2023-05-05T16:29:05.692Z,101145.59
2023-05-05T16:31:34.065Z,101146.53
2023-05-05T16:34:03.936Z,101144.88
2023-05-05T16:36:32.254Z,101138.41
2023-05-05T16:38:59.885Z,101147.19
2023-05-05T16:41:27.586Z,101145.63
2023-05-05T16:43:56.693Z,101149.31
2023-05-05T16:46:24.387Z,101152.94
2023-05-05T16:48:52.156Z,101138.09
2023-05-05T16:51:19.786Z,101136.16
2023-05-05T16:53:48.969Z,101138.44
2023-05-05T16:56:18.796Z,101149.06
2023-05-05T16:58:46.398Z,101146.03
2023-05-05T17:01:15.404Z,101140.88
2023-05-05T17:03:44.849Z,101136.19
2023-05-05T17:06:12.990Z,101142.25
2023-05-05T17:08:40.589Z,101132.69
2023-05-05T17:11:10.861Z,101126.69
2023-05-05T17:13:39.225Z,101131.50
2023-05-05T17:16:06.953Z,101138.34
2023-05-05T17:18:37.072Z,101130.47
2023-05-05T17:21:04.829Z,101134.78
2023-05-05T17:23:32.522Z,101127.09
2023-05-05T17:26:00.183Z,101126.06
2023-05-05T17:28:27.804Z,101123.88
2023-05-05T17:30:55.789Z,101131.16
2023-05-05T17:33:23.394Z,101128.66
2023-05-05T17:35:52.361Z,101131.59
2023-05-05T17:38:19.983Z,101127.53
2023-05-05T17:40:47.752Z,101127.75
2023-05-05T17:43:15.334Z,101128.19
2023-05-05T17:45:43.208Z,101137.53
2023-05-05T17:48:10.802Z,101140.72
2023-05-05T17:50:38.419Z,101133.91
2023-05-05T17:53:07.403Z,101131.06
2023-05-05T17:55:35.037Z,101136.34
2023-05-05T17:58:02.616Z,101136.47
2023-05-05T18:00:30.442Z,101135.03
2023-05-05T18:02:58.117Z,101132.25
2023-05-05T18:05:25.911Z,101136.50
2023-05-05T18:07:53.535Z,101129.97
2023-05-05T18:10:23.236Z,101132.81
2023-05-05T18:12:50.889Z,101140.25
2023-05-05T18:15:18.528Z,101133.63
2023-05-05T18:17:46.129Z,101135.28
2023-05-05T18:20:13.875Z,101137.13
2023-05-05T18:22:41.489Z,101141.25
2023-05-05T18:25:10.087Z,101132.28
2023-05-05T18:27:39.778Z,101141.31
2023-05-05T18:30:07.965Z,101139.78
2023-05-05T18:32:35.739Z,101145.25
2023-05-05T18:35:03.395Z,101135.78
2023-05-05T18:37:31.050Z,101146.53
2023-05-05T18:39:58.609Z,101162.69
2023-05-05T18:42:26.788Z,101159.47
2023-05-05T18:44:55.757Z,101152.59
2023-05-05T18:47:23.602Z,101156.44
2023-05-05T18:49:51.214Z,101156.16
2023-05-05T18:52:18.823Z,101164.56
2023-05-05T18:54:46.446Z,101169.78
2023-05-05T18:57:14.104Z,101176.22
2023-05-05T18:59:41.759Z,101175.38
2023-05-05T19:02:10.781Z,101173.28
2023-05-05T19:04:38.708Z,101193.13
2023-05-05T19:07:08.675Z,101185.34
2023-05-05T19:09:36.422Z,101193.09
2023-05-05T19:12:04.213Z,101195.28
2023-05-05T19:14:32.108Z,101186.34
2023-05-05T19:16:59.849Z,101175.47
2023-05-05T19:19:28.786Z,101175.50
2023-05-05T19:21:56.772Z,101176.44
2023-05-05T19:24:24.357Z,101179.72
2023-05-05T19:26:52.007Z,101177.41
2023-05-05T19:29:19.602Z,101178.28
2023-05-05T19:31:47.344Z,101192.25
2023-05-05T19:34:14.975Z,101186.00
2023-05-05T19:36:43.972Z,101198.50
2023-05-05T19:39:13.085Z,101200.16
2023-05-05T19:41:43.292Z,101194.91
2023-05-05T19:44:11.055Z,101211.75
2023-05-05T19:46:38.913Z,101198.34
2023-05-05T19:49:07.185Z,101205.56
2023-05-05T19:51:34.849Z,101198.16
2023-05-05T19:54:03.844Z,101205.97
2023-05-05T19:56:31.651Z,101205.97
2023-05-05T19:59:00.539Z,101195.25
2023-05-05T20:01:28.505Z,101195.56
2023-05-05T20:03:56.770Z,101186.53
2023-05-05T20:06:24.558Z,101196.59
2023-05-05T20:08:52.289Z,101200.09
2023-05-05T20:11:21.543Z,101195.53
2023-05-05T20:13:50.125Z,101200.25
2023-05-05T20:16:18.186Z,101195.34
2023-05-05T20:18:46.132Z,101196.94
2023-05-05T20:21:13.798Z,101197.28
2023-05-05T20:23:42.781Z,101193.66
2023-05-05T20:26:10.423Z,101202.97
2023-05-05T20:28:40.399Z,101202.38
2023-05-05T20:31:10.354Z,101193.19
2023-05-05T20:33:38.024Z,101186.50
2023-05-05T20:36:06.228Z,101196.94
2023-05-05T20:38:33.859Z,101197.59
2023-05-05T20:41:01.437Z,101187.97
2023-05-05T20:43:29.128Z,101198.94
2023-05-05T20:45:58.164Z,101192.47
2023-05-05T20:48:25.764Z,101202.66
2023-05-05T20:50:53.320Z,101194.94
2023-05-05T20:53:21.305Z,101190.69
2023-05-05T20:55:49.825Z,101191.38
2023-05-05T20:58:17.607Z,101200.00
2023-05-05T21:00:45.233Z,101201.13
2023-05-05T21:03:14.218Z,101213.94
2023-05-05T21:05:42.107Z,101210.72
2023-05-05T21:08:09.861Z,101209.63
2023-05-05T21:10:37.500Z,101205.00
2023-05-05T21:13:05.638Z,101192.22
2023-05-05T21:15:34.165Z,101184.50
2023-05-05T21:18:02.820Z,101193.38
2023-05-05T21:20:31.833Z,101184.63
2023-05-05T21:22:59.413Z,101196.63
2023-05-05T21:25:27.168Z,101194.22
2023-05-05T21:27:54.769Z,101189.59
2023-05-05T21:30:23.437Z,101186.06
2023-05-05T21:32:51.328Z,101185.38
2023-05-05T21:35:19.022Z,101195.25
2023-05-05T21:37:49.732Z,101196.19
2023-05-05T21:40:17.488Z,101182.06
2023-05-05T21:42:45.092Z,101187.44
2023-05-05T21:45:13.045Z,101185.78
2023-05-05T21:47:40.751Z,101184.69
2023-05-05T21:50:09.600Z,101186.69
2023-05-05T21:52:37.396Z,101181.38
2023-05-05T21:55:07.073Z,101194.41
2023-05-05T21:57:34.698Z,101192.69
2023-05-05T22:00:02.304Z,101191.72
2023-05-05T22:02:40.045Z,101194.00
2023-05-05T22:05:08.262Z,101194.66
2023-05-05T22:07:35.974Z,101201.25
2023-05-05T22:10:03.768Z,101219.69
2023-05-05T22:12:32.745Z,101217.34
2023-05-05T22:15:00.348Z,101223.59
2023-05-05T22:17:27.961Z,101226.69
2023-05-05T22:19:55.607Z,101234.31
2023-05-05T22:22:23.227Z,101222.41
2023-05-05T22:24:50.869Z,101218.91
2023-05-05T22:27:18.774Z,101217.78
2023-05-05T22:29:47.740Z,101214.50
2023-05-05T22:32:15.367Z,101215.13
2023-05-05T22:34:43.107Z,101214.09
2023-05-05T22:37:10.715Z,101219.19
2023-05-05T22:39:38.326Z,101214.41
2023-05-05T22:42:06.023Z,101219.56
2023-05-05T22:44:33.649Z,101221.66
2023-05-05T22:47:02.643Z,101219.53
2023-05-05T22:49:30.297Z,101217.34
2023-05-05T22:51:58.390Z,101215.09
2023-05-05T22:54:26.072Z,101211.44
2023-05-05T22:56:53.672Z,101208.31
2023-05-05T22:59:21.392Z,101194.28
2023-05-05T23:01:49.031Z,101193.72
2023-05-05T23:04:18.068Z,101184.59
2023-05-05T23:06:46.205Z,101187.69
2023-05-05T23:09:13.907Z,101184.03
2023-05-05T23:11:41.509Z,101176.09
2023-05-05T23:14:09.116Z,101181.31
2023-05-05T23:16:36.764Z,101177.50
2023-05-05T23:19:04.430Z,101182.03
2023-05-05T23:21:38.870Z,101176.66
2023-05-05T23:24:13.302Z,101184.56
2023-05-05T23:26:40.925Z,101183.06
2023-05-05T23:29:08.518Z,101183.56
2023-05-05T23:31:36.158Z,101185.50
2023-05-05T23:34:03.811Z,101192.94
2023-05-05T23:36:32.828Z,101180.19
2023-05-05T23:39:00.426Z,101183.31
2023-05-05T23:41:28.063Z,101184.78
2023-05-05T23:43:55.676Z,101183.56
2023-05-05T23:46:23.967Z,101177.97
2023-05-05T23:48:51.844Z,101184.66
2023-05-05T23:51:19.482Z,101181.03
2023-05-05T23:53:48.412Z,101186.09
2023-05-05T23:56:15.998Z,101180.84
2023-05-05T23:58:43.603Z,101179.28
